sensor_id;sensor_type;location;lat;lon;timestamp;P1;durP1;ratioP1;P2;durP2;ratioP2
54143;SDS011;40050;47.324;18.792;2023-06-04T00:01:34;6.58;;;2.50;;
54143;SDS011;40050;47.324;18.792;2023-06-04T00:03:35;6.87;;;2.99;;
54143;SDS011;40050;47.324;18.792;2023-06-04T00:05:36;4.61;;;2.89;;
54143;SDS011;40050;47.324;18.792;2023-06-04T00:07:37;5.30;;;2.99;;
54143;SDS011;40050;47.324;18.792;2023-06-04T00:09:38;7.85;;;2.89;;
54143;SDS011;40050;47.324;18.792;2023-06-04T00:11:39;7.37;;;2.70;;
54143;SDS011;40050;47.324;18.792;2023-06-04T00:13:40;7.16;;;2.79;;
54143;SDS011;40050;47.324;18.792;2023-06-04T00:15:41;7.26;;;2.79;;
54143;SDS011;40050;47.324;18.792;2023-06-04T00:17:42;5.78;;;2.49;;
54143;SDS011;40050;47.324;18.792;2023-06-04T00:19:43;6.66;;;2.69;;
54143;SDS011;40050;47.324;18.792;2023-06-04T00:21:44;5.68;;;2.49;;
54143;SDS011;40050;47.324;18.792;2023-06-04T00:23:44;4.50;;;2.39;;
54143;SDS011;40050;47.324;18.792;2023-06-04T00:25:45;4.59;;;2.59;;
54143;SDS011;40050;47.324;18.792;2023-06-04T00:27:46;5.67;;;2.59;;
54143;SDS011;40050;47.324;18.792;2023-06-04T00:29:47;4.59;;;2.49;;
54143;SDS011;40050;47.324;18.792;2023-06-04T00:31:48;5.18;;;2.59;;
54143;SDS011;40050;47.324;18.792;2023-06-04T00:33:49;4.59;;;2.69;;
54143;SDS011;40050;47.324;18.792;2023-06-04T00:35:50;4.99;;;2.59;;
54143;SDS011;40050;47.324;18.792;2023-06-04T00:37:51;5.47;;;2.79;;
54143;SDS011;40050;47.324;18.792;2023-06-04T00:39:52;6.74;;;2.49;;
54143;SDS011;40050;47.324;18.792;2023-06-04T00:41:52;4.99;;;2.49;;
54143;SDS011;40050;47.324;18.792;2023-06-04T00:43:53;4.50;;;2.19;;
54143;SDS011;40050;47.324;18.792;2023-06-04T00:45:57;4.40;;;2.39;;
54143;SDS011;40050;47.324;18.792;2023-06-04T00:47:55;6.35;;;2.29;;
54143;SDS011;40050;47.324;18.792;2023-06-04T00:49:56;5.27;;;2.19;;
54143;SDS011;40050;47.324;18.792;2023-06-04T00:51:57;4.79;;;2.39;;
54143;SDS011;40050;47.324;18.792;2023-06-04T00:53:58;6.06;;;2.59;;
54143;SDS011;40050;47.324;18.792;2023-06-04T00:55:59;4.10;;;2.59;;
54143;SDS011;40050;47.324;18.792;2023-06-04T00:58:00;8.21;;;2.69;;
54143;SDS011;40050;47.324;18.792;2023-06-04T01:00:02;4.00;;;2.29;;
54143;SDS011;40050;47.324;18.792;2023-06-04T01:02:15;6.15;;;2.59;;
54143;SDS011;40050;47.324;18.792;2023-06-04T01:04:32;4.98;;;2.59;;
54143;SDS011;40050;47.324;18.792;2023-06-04T01:06:38;4.78;;;2.39;;
54143;SDS011;40050;47.324;18.792;2023-06-04T01:08:35;10.54;;;2.99;;
54143;SDS011;40050;47.324;18.792;2023-06-04T01:10:36;6.84;;;2.59;;
54143;SDS011;40050;47.324;18.792;2023-06-04T01:12:41;4.99;;;2.29;;
54143;SDS011;40050;47.324;18.792;2023-06-04T01:14:40;3.32;;;2.29;;
54143;SDS011;40050;47.324;18.792;2023-06-04T01:18:46;5.47;;;2.09;;
54143;SDS011;40050;47.324;18.792;2023-06-04T01:21:03;4.69;;;2.19;;
54143;SDS011;40050;47.324;18.792;2023-06-04T01:25:24;4.88;;;2.79;;
54143;SDS011;40050;47.324;18.792;2023-06-04T01:27:25;5.86;;;2.49;;
54143;SDS011;40050;47.324;18.792;2023-06-04T01:29:26;4.29;;;2.59;;
54143;SDS011;40050;47.324;18.792;2023-06-04T01:31:27;4.00;;;2.29;;
54143;SDS011;40050;47.324;18.792;2023-06-04T01:33:29;6.33;;;2.29;;
54143;SDS011;40050;47.324;18.792;2023-06-04T01:35:30;6.82;;;2.69;;
54143;SDS011;40050;47.324;18.792;2023-06-04T01:37:31;5.65;;;2.49;;
54143;SDS011;40050;47.324;18.792;2023-06-04T01:39:32;7.11;;;2.89;;
54143;SDS011;40050;47.324;18.792;2023-06-04T01:41:33;6.13;;;2.29;;
54143;SDS011;40050;47.324;18.792;2023-06-04T01:43:34;4.96;;;2.49;;
54143;SDS011;40050;47.324;18.792;2023-06-04T01:45:35;3.89;;;2.39;;
54143;SDS011;40050;47.324;18.792;2023-06-04T01:47:36;6.32;;;2.49;;
54143;SDS011;40050;47.324;18.792;2023-06-04T01:49:37;4.37;;;2.29;;
54143;SDS011;40050;47.324;18.792;2023-06-04T01:51:38;4.76;;;2.29;;
54143;SDS011;40050;47.324;18.792;2023-06-04T01:53:39;5.74;;;2.19;;
54143;SDS011;40050;47.324;18.792;2023-06-04T01:55:41;4.58;;;2.39;;
54143;SDS011;40050;47.324;18.792;2023-06-04T01:57:42;6.04;;;2.49;;
54143;SDS011;40050;47.324;18.792;2023-06-04T01:59:42;6.82;;;2.59;;
54143;SDS011;40050;47.324;18.792;2023-06-04T02:01:43;4.58;;;2.19;;
54143;SDS011;40050;47.324;18.792;2023-06-04T02:03:44;4.58;;;2.29;;
54143;SDS011;40050;47.324;18.792;2023-06-04T02:05:45;6.03;;;2.39;;
54143;SDS011;40050;47.324;18.792;2023-06-04T02:07:46;6.03;;;2.19;;
54143;SDS011;40050;47.324;18.792;2023-06-04T02:09:48;7.96;;;2.39;;
54143;SDS011;40050;47.324;18.792;2023-06-04T02:11:48;6.79;;;2.39;;
54143;SDS011;40050;47.324;18.792;2023-06-04T02:13:49;7.56;;;2.29;;
54143;SDS011;40050;47.324;18.792;2023-06-04T02:15:50;3.97;;;2.09;;
54143;SDS011;40050;47.324;18.792;2023-06-04T02:17:54;4.55;;;2.29;;
54143;SDS011;40050;47.324;18.792;2023-06-04T02:19:52;5.52;;;2.39;;
54143;SDS011;40050;47.324;18.792;2023-06-04T02:21:53;4.65;;;2.29;;
54143;SDS011;40050;47.324;18.792;2023-06-04T02:23:54;3.97;;;2.39;;
54143;SDS011;40050;47.324;18.792;2023-06-04T02:25:55;6.68;;;2.09;;
54143;SDS011;40050;47.324;18.792;2023-06-04T02:27:55;3.97;;;2.09;;
54143;SDS011;40050;47.324;18.792;2023-06-04T02:29:56;4.17;;;2.29;;
54143;SDS011;40050;47.324;18.792;2023-06-04T02:31:57;4.56;;;2.29;;
54143;SDS011;40050;47.324;18.792;2023-06-04T02:33:58;5.34;;;2.19;;
54143;SDS011;40050;47.324;18.792;2023-06-04T02:35:59;4.08;;;2.39;;
54143;SDS011;40050;47.324;18.792;2023-06-04T02:38:00;5.92;;;2.59;;
54143;SDS011;40050;47.324;18.792;2023-06-04T02:40:01;5.14;;;2.09;;
54143;SDS011;40050;47.324;18.792;2023-06-04T02:42:02;4.27;;;2.09;;
54143;SDS011;40050;47.324;18.792;2023-06-04T02:44:03;5.92;;;2.59;;
54143;SDS011;40050;47.324;18.792;2023-06-04T02:46:04;3.69;;;2.49;;
54143;SDS011;40050;47.324;18.792;2023-06-04T02:48:05;7.29;;;2.09;;
54143;SDS011;40050;47.324;18.792;2023-06-04T02:50:06;6.61;;;2.29;;
54143;SDS011;40050;47.324;18.792;2023-06-04T02:52:07;3.89;;;2.19;;
54143;SDS011;40050;47.324;18.792;2023-06-04T02:54:08;3.79;;;2.29;;
54143;SDS011;40050;47.324;18.792;2023-06-04T02:56:08;5.25;;;2.19;;
54143;SDS011;40050;47.324;18.792;2023-06-04T02:58:13;3.89;;;2.19;;
54143;SDS011;40050;47.324;18.792;2023-06-04T03:00:14;3.50;;;2.29;;
54143;SDS011;40050;47.324;18.792;2023-06-04T03:02:15;4.37;;;2.49;;
54143;SDS011;40050;47.324;18.792;2023-06-04T03:04:16;5.24;;;2.39;;
54143;SDS011;40050;47.324;18.792;2023-06-04T03:06:17;5.63;;;2.39;;
54143;SDS011;40050;47.324;18.792;2023-06-04T03:08:17;4.66;;;2.19;;
54143;SDS011;40050;47.324;18.792;2023-06-04T03:10:18;3.79;;;2.49;;
54143;SDS011;40050;47.324;18.792;2023-06-04T03:12:19;4.86;;;2.29;;
54143;SDS011;40050;47.324;18.792;2023-06-04T03:14:20;4.57;;;2.39;;
54143;SDS011;40050;47.324;18.792;2023-06-04T03:16:21;6.80;;;2.89;;
54143;SDS011;40050;47.324;18.792;2023-06-04T03:18:22;4.56;;;2.29;;
54143;SDS011;40050;47.324;18.792;2023-06-04T03:20:23;4.46;;;2.19;;
54143;SDS011;40050;47.324;18.792;2023-06-04T03:22:24;6.59;;;2.39;;
54143;SDS011;40050;47.324;18.792;2023-06-04T03:24:25;9.50;;;2.49;;
54143;SDS011;40050;47.324;18.792;2023-06-04T03:26:26;6.10;;;2.39;;
54143;SDS011;40050;47.324;18.792;2023-06-04T03:28:27;5.71;;;2.29;;
54143;SDS011;40050;47.324;18.792;2023-06-04T03:30:28;7.74;;;2.09;;
54143;SDS011;40050;47.324;18.792;2023-06-04T03:32:29;4.06;;;2.29;;
54143;SDS011;40050;47.324;18.792;2023-06-04T03:34:30;5.22;;;2.39;;
54143;SDS011;40050;47.324;18.792;2023-06-04T03:36:31;6.09;;;1.89;;
54143;SDS011;40050;47.324;18.792;2023-06-04T03:38:31;4.54;;;2.29;;
54143;SDS011;40050;47.324;18.792;2023-06-04T03:40:32;3.77;;;1.99;;
54143;SDS011;40050;47.324;18.792;2023-06-04T03:42:33;5.41;;;2.29;;
54143;SDS011;40050;47.324;18.792;2023-06-04T03:44:34;5.41;;;2.29;;
54143;SDS011;40050;47.324;18.792;2023-06-04T03:46:35;4.15;;;2.09;;
54143;SDS011;40050;47.324;18.792;2023-06-04T03:48:36;5.41;;;2.09;;
54143;SDS011;40050;47.324;18.792;2023-06-04T03:50:37;4.45;;;2.19;;
54143;SDS011;40050;47.324;18.792;2023-06-04T03:52:38;4.64;;;2.39;;
54143;SDS011;40050;47.324;18.792;2023-06-04T03:54:39;4.64;;;2.29;;
54143;SDS011;40050;47.324;18.792;2023-06-04T03:56:40;5.81;;;2.29;;
54143;SDS011;40050;47.324;18.792;2023-06-04T03:58:41;5.71;;;2.39;;
54143;SDS011;40050;47.324;18.792;2023-06-04T04:00:43;4.06;;;2.29;;
54143;SDS011;40050;47.324;18.792;2023-06-04T04:02:44;3.86;;;2.19;;
54143;SDS011;40050;47.324;18.792;2023-06-04T04:04:45;5.40;;;2.59;;
54143;SDS011;40050;47.324;18.792;2023-06-04T04:06:46;4.43;;;2.39;;
54143;SDS011;40050;47.324;18.792;2023-06-04T04:08:47;8.66;;;2.39;;
54143;SDS011;40050;47.324;18.792;2023-06-04T04:10:48;7.98;;;2.39;;
54143;SDS011;40050;47.324;18.792;2023-06-04T04:12:49;6.74;;;2.39;;
54143;SDS011;40050;47.324;18.792;2023-06-04T04:14:49;4.14;;;2.09;;
54143;SDS011;40050;47.324;18.792;2023-06-04T04:16:50;4.44;;;2.19;;
54143;SDS011;40050;47.324;18.792;2023-06-04T04:18:51;5.98;;;2.39;;
54143;SDS011;40050;47.324;18.792;2023-06-04T04:20:52;5.32;;;2.39;;
54143;SDS011;40050;47.324;18.792;2023-06-04T04:22:57;5.03;;;2.29;;
54143;SDS011;40050;47.324;18.792;2023-06-04T04:24:59;6.66;;;2.29;;
54143;SDS011;40050;47.324;18.792;2023-06-04T04:26:59;3.57;;;2.39;;
54143;SDS011;40050;47.324;18.792;2023-06-04T04:29:00;5.11;;;2.39;;
54143;SDS011;40050;47.324;18.792;2023-06-04T04:31:01;4.63;;;2.09;;
54143;SDS011;40050;47.324;18.792;2023-06-04T04:33:02;5.31;;;2.89;;
54143;SDS011;40050;47.324;18.792;2023-06-04T04:35:03;2.90;;;2.09;;
54143;SDS011;40050;47.324;18.792;2023-06-04T04:37:05;5.03;;;2.39;;
54143;SDS011;40050;47.324;18.792;2023-06-04T04:39:06;5.90;;;2.29;;
54143;SDS011;40050;47.324;18.792;2023-06-04T04:41:07;5.54;;;2.29;;
54143;SDS011;40050;47.324;18.792;2023-06-04T04:43:07;5.33;;;2.39;;
54143;SDS011;40050;47.324;18.792;2023-06-04T04:45:09;4.27;;;2.19;;
54143;SDS011;40050;47.324;18.792;2023-06-04T04:47:09;4.20;;;2.29;;
54143;SDS011;40050;47.324;18.792;2023-06-04T04:49:10;11.22;;;4.19;;
54143;SDS011;40050;47.324;18.792;2023-06-04T04:51:11;9.98;;;3.99;;
54143;SDS011;40050;47.324;18.792;2023-06-04T04:53:12;8.04;;;3.69;;
54143;SDS011;40050;47.324;18.792;2023-06-04T04:55:13;6.48;;;3.49;;
54143;SDS011;40050;47.324;18.792;2023-06-04T04:57:14;7.47;;;4.29;;
54143;SDS011;40050;47.324;18.792;2023-06-04T04:59:15;9.24;;;4.29;;
54143;SDS011;40050;47.324;18.792;2023-06-04T05:01:15;10.03;;;3.79;;
54143;SDS011;40050;47.324;18.792;2023-06-04T05:03:16;6.38;;;3.39;;
54143;SDS011;40050;47.324;18.792;2023-06-04T05:05:17;5.70;;;2.80;;
54143;SDS011;40050;47.324;18.792;2023-06-04T05:07:18;4.92;;;2.30;;
54143;SDS011;40050;47.324;18.792;2023-06-04T05:09:19;7.39;;;2.60;;
54143;SDS011;40050;47.324;18.792;2023-06-04T05:11:21;3.94;;;2.20;;
54143;SDS011;40050;47.324;18.792;2023-06-04T05:13:23;6.11;;;2.00;;
54143;SDS011;40050;47.324;18.792;2023-06-04T05:15:25;4.04;;;1.90;;
54143;SDS011;40050;47.324;18.792;2023-06-04T05:17:25;5.22;;;2.40;;
54143;SDS011;40050;47.324;18.792;2023-06-04T05:19:26;6.70;;;3.30;;
54143;SDS011;40050;47.324;18.792;2023-06-04T05:21:27;7.60;;;3.80;;
54143;SDS011;40050;47.324;18.792;2023-06-04T05:23:28;4.64;;;2.60;;
54143;SDS011;40050;47.324;18.792;2023-06-04T05:25:28;4.43;;;2.20;;
54143;SDS011;40050;47.324;18.792;2023-06-04T05:27:29;4.04;;;2.20;;
54143;SDS011;40050;47.324;18.792;2023-06-04T05:29:30;5.51;;;1.80;;
54143;SDS011;40050;47.324;18.792;2023-06-04T05:31:31;5.52;;;1.80;;
54143;SDS011;40050;47.324;18.792;2023-06-04T05:33:32;3.84;;;1.90;;
54143;SDS011;40050;47.324;18.792;2023-06-04T05:35:33;3.65;;;1.50;;
54143;SDS011;40050;47.324;18.792;2023-06-04T05:37:34;6.45;;;1.80;;
54143;SDS011;40050;47.324;18.792;2023-06-04T05:39:35;4.17;;;1.70;;
54143;SDS011;40050;47.324;18.792;2023-06-04T05:41:36;3.67;;;1.80;;
54143;SDS011;40050;47.324;18.792;2023-06-04T05:43:37;3.67;;;1.90;;
54143;SDS011;40050;47.324;18.792;2023-06-04T05:45:38;2.87;;;1.50;;
54143;SDS011;40050;47.324;18.792;2023-06-04T05:47:39;4.46;;;1.70;;
54143;SDS011;40050;47.324;18.792;2023-06-04T05:49:40;3.97;;;1.60;;
54143;SDS011;40050;47.324;18.792;2023-06-04T05:51:41;4.06;;;2.10;;
54143;SDS011;40050;47.324;18.792;2023-06-04T05:53:42;4.86;;;2.00;;
54143;SDS011;40050;47.324;18.792;2023-06-04T05:55:43;3.97;;;1.60;;
54143;SDS011;40050;47.324;18.792;2023-06-04T05:57:44;5.46;;;1.70;;
54143;SDS011;40050;47.324;18.792;2023-06-04T05:59:45;4.57;;;1.90;;
54143;SDS011;40050;47.324;18.792;2023-06-04T06:01:45;3.28;;;1.80;;
54143;SDS011;40050;47.324;18.792;2023-06-04T06:03:46;3.37;;;1.90;;
54143;SDS011;40050;47.324;18.792;2023-06-04T06:05:49;4.27;;;2.20;;
54143;SDS011;40050;47.324;18.792;2023-06-04T06:07:50;4.07;;;2.00;;
54143;SDS011;40050;47.324;18.792;2023-06-04T06:09:51;3.58;;;1.80;;
54143;SDS011;40050;47.324;18.792;2023-06-04T06:11:51;4.77;;;2.00;;
54143;SDS011;40050;47.324;18.792;2023-06-04T06:13:52;2.49;;;1.70;;
54143;SDS011;40050;47.324;18.792;2023-06-04T06:15:55;3.18;;;1.50;;
54143;SDS011;40050;47.324;18.792;2023-06-04T06:17:54;6.27;;;2.00;;
54143;SDS011;40050;47.324;18.792;2023-06-04T06:19:55;2.69;;;1.80;;
54143;SDS011;40050;47.324;18.792;2023-06-04T06:21:56;4.58;;;1.70;;
54143;SDS011;40050;47.324;18.792;2023-06-04T06:23:57;3.38;;;1.80;;
54143;SDS011;40050;47.324;18.792;2023-06-04T06:25:58;2.59;;;1.50;;
54143;SDS011;40050;47.324;18.792;2023-06-04T06:27:58;6.77;;;2.10;;
54143;SDS011;40050;47.324;18.792;2023-06-04T06:29:59;6.47;;;1.80;;
54143;SDS011;40050;47.324;18.792;2023-06-04T06:32:00;3.48;;;1.70;;
54143;SDS011;40050;47.324;18.792;2023-06-04T06:34:01;5.28;;;1.70;;
54143;SDS011;40050;47.324;18.792;2023-06-04T06:36:02;5.18;;;1.70;;
54143;SDS011;40050;47.324;18.792;2023-06-04T06:38:03;4.38;;;1.80;;
54143;SDS011;40050;47.324;18.792;2023-06-04T06:40:04;5.08;;;1.70;;
54143;SDS011;40050;47.324;18.792;2023-06-04T06:42:05;4.68;;;1.90;;
54143;SDS011;40050;47.324;18.792;2023-06-04T06:44:06;4.98;;;1.70;;
54143;SDS011;40050;47.324;18.792;2023-06-04T06:46:07;5.18;;;2.10;;
54143;SDS011;40050;47.324;18.792;2023-06-04T06:48:08;6.37;;;2.00;;
54143;SDS011;40050;47.324;18.792;2023-06-04T06:50:09;10.36;;;2.20;;
54143;SDS011;40050;47.324;18.792;2023-06-04T06:52:10;4.78;;;1.90;;
54143;SDS011;40050;47.324;18.792;2023-06-04T06:54:10;6.47;;;2.20;;
54143;SDS011;40050;47.324;18.792;2023-06-04T06:56:13;3.98;;;1.90;;
54143;SDS011;40050;47.324;18.792;2023-06-04T06:58:12;4.98;;;2.30;;
54143;SDS011;40050;47.324;18.792;2023-06-04T07:00:13;4.48;;;2.10;;
54143;SDS011;40050;47.324;18.792;2023-06-04T07:02:14;4.08;;;2.00;;
54143;SDS011;40050;47.324;18.792;2023-06-04T07:04:15;2.79;;;1.70;;
54143;SDS011;40050;47.324;18.792;2023-06-04T07:06:16;9.76;;;1.60;;
54143;SDS011;40050;47.324;18.792;2023-06-04T07:08:17;5.08;;;1.60;;
54143;SDS011;40050;47.324;18.792;2023-06-04T07:10:18;4.88;;;1.70;;
54143;SDS011;40050;47.324;18.792;2023-06-04T07:12:19;3.59;;;1.60;;
54143;SDS011;40050;47.324;18.792;2023-06-04T07:14:20;3.49;;;1.40;;
54143;SDS011;40050;47.324;18.792;2023-06-04T07:16:20;2.49;;;1.50;;
54143;SDS011;40050;47.324;18.792;2023-06-04T07:18:21;6.58;;;1.60;;
54143;SDS011;40050;47.324;18.792;2023-06-04T07:20:22;5.38;;;1.80;;
54143;SDS011;40050;47.324;18.792;2023-06-04T07:22:25;8.97;;;1.70;;
54143;SDS011;40050;47.324;18.792;2023-06-04T07:24:26;8.57;;;1.70;;
54143;SDS011;40050;47.324;18.792;2023-06-04T07:26:26;4.88;;;1.90;;
54143;SDS011;40050;47.324;18.792;2023-06-04T07:28:27;6.38;;;1.70;;
54143;SDS011;40050;47.324;18.792;2023-06-04T07:30:28;6.68;;;1.70;;
54143;SDS011;40050;47.324;18.792;2023-06-04T07:32:29;4.79;;;1.70;;
54143;SDS011;40050;47.324;18.792;2023-06-04T07:34:30;3.09;;;1.90;;
54143;SDS011;40050;47.324;18.792;2023-06-04T07:36:31;5.19;;;2.10;;
54143;SDS011;40050;47.324;18.792;2023-06-04T07:38:32;3.99;;;1.90;;
54143;SDS011;40050;47.324;18.792;2023-06-04T07:40:33;7.58;;;1.70;;
54143;SDS011;40050;47.324;18.792;2023-06-04T07:42:35;4.89;;;2.10;;
54143;SDS011;40050;47.324;18.792;2023-06-04T07:44:36;6.38;;;2.00;;
54143;SDS011;40050;47.324;18.792;2023-06-04T07:46:37;4.39;;;1.80;;
54143;SDS011;40050;47.324;18.792;2023-06-04T07:48:39;6.58;;;1.70;;
54143;SDS011;40050;47.324;18.792;2023-06-04T07:50:41;5.29;;;1.80;;
54143;SDS011;40050;47.324;18.792;2023-06-04T07:52:41;3.89;;;2.00;;
54143;SDS011;40050;47.324;18.792;2023-06-04T07:54:42;4.19;;;1.80;;
54143;SDS011;40050;47.324;18.792;2023-06-04T07:56:43;5.09;;;1.90;;
54143;SDS011;40050;47.324;18.792;2023-06-04T07:58:44;5.79;;;1.80;;
54143;SDS011;40050;47.324;18.792;2023-06-04T08:00:45;4.49;;;1.90;;
54143;SDS011;40050;47.324;18.792;2023-06-04T08:02:46;3.39;;;1.80;;
54143;SDS011;40050;47.324;18.792;2023-06-04T08:04:47;7.88;;;1.70;;
54143;SDS011;40050;47.324;18.792;2023-06-04T08:06:48;2.49;;;1.50;;
54143;SDS011;40050;47.324;18.792;2023-06-04T08:08:49;6.68;;;1.70;;
54143;SDS011;40050;47.324;18.792;2023-06-04T08:10:50;3.39;;;1.50;;
54143;SDS011;40050;47.324;18.792;2023-06-04T08:12:51;2.99;;;1.40;;
54143;SDS011;40050;47.324;18.792;2023-06-04T08:14:52;2.99;;;1.50;;
54143;SDS011;40050;47.324;18.792;2023-06-04T08:16:53;3.99;;;1.50;;
54143;SDS011;40050;47.324;18.792;2023-06-04T08:18:53;3.69;;;1.50;;
54143;SDS011;40050;47.324;18.792;2023-06-04T08:20:54;3.99;;;1.50;;
54143;SDS011;40050;47.324;18.792;2023-06-04T08:22:55;5.99;;;1.50;;
54143;SDS011;40050;47.324;18.792;2023-06-04T08:24:57;3.29;;;1.60;;
54143;SDS011;40050;47.324;18.792;2023-06-04T08:27:23;2.99;;;1.60;;
54143;SDS011;40050;47.324;18.792;2023-06-04T08:29:24;6.59;;;1.90;;
54143;SDS011;40050;47.324;18.792;2023-06-04T08:31:24;5.59;;;1.50;;
54143;SDS011;40050;47.324;18.792;2023-06-04T08:33:25;2.59;;;1.60;;
54143;SDS011;40050;47.324;18.792;2023-06-04T08:35:26;2.99;;;1.50;;
54143;SDS011;40050;47.324;18.792;2023-06-04T08:37:33;3.59;;;1.60;;
54143;SDS011;40050;47.324;18.792;2023-06-04T08:39:37;4.29;;;1.60;;
54143;SDS011;40050;47.324;18.792;2023-06-04T08:41:48;5.68;;;1.60;;
54143;SDS011;40050;47.324;18.792;2023-06-04T08:43:47;3.99;;;1.60;;
54143;SDS011;40050;47.324;18.792;2023-06-04T08:45:50;3.09;;;1.60;;
54143;SDS011;40050;47.324;18.792;2023-06-04T08:47:55;7.87;;;1.80;;
54143;SDS011;40050;47.324;18.792;2023-06-04T08:49:59;5.18;;;1.60;;
54143;SDS011;40050;47.324;18.792;2023-06-04T08:51:57;7.17;;;1.80;;
54143;SDS011;40050;47.324;18.792;2023-06-04T08:53:58;2.59;;;1.60;;
54143;SDS011;40050;47.324;18.792;2023-06-04T08:55:59;4.09;;;1.40;;
54143;SDS011;40050;47.324;18.792;2023-06-04T08:58:02;4.78;;;1.50;;
54143;SDS011;40050;47.324;18.792;2023-06-04T09:00:03;5.38;;;2.10;;
54143;SDS011;40050;47.324;18.792;2023-06-04T09:02:04;7.37;;;1.70;;
54143;SDS011;40050;47.324;18.792;2023-06-04T09:04:07;7.77;;;1.80;;
54143;SDS011;40050;47.324;18.792;2023-06-04T09:06:09;3.89;;;1.80;;
54143;SDS011;40050;47.324;18.792;2023-06-04T09:08:10;3.29;;;1.40;;
54143;SDS011;40050;47.324;18.792;2023-06-04T09:10:11;4.58;;;1.70;;
54143;SDS011;40050;47.324;18.792;2023-06-04T09:12:17;6.08;;;1.70;;
54143;SDS011;40050;47.324;18.792;2023-06-04T09:14:18;2.99;;;1.50;;
54143;SDS011;40050;47.324;18.792;2023-06-04T09:16:47;8.67;;;1.80;;
54143;SDS011;40050;47.324;18.792;2023-06-04T09:18:35;4.18;;;1.70;;
54143;SDS011;40050;47.324;18.792;2023-06-04T09:20:36;2.89;;;1.60;;
54143;SDS011;40050;47.324;18.792;2023-06-04T09:22:38;6.37;;;1.80;;
54143;SDS011;40050;47.324;18.792;2023-06-04T09:24:39;5.87;;;1.60;;
54143;SDS011;40050;47.324;18.792;2023-06-04T09:26:40;7.57;;;1.90;;
54143;SDS011;40050;47.324;18.792;2023-06-04T09:28:41;4.78;;;1.60;;
54143;SDS011;40050;47.324;18.792;2023-06-04T09:30:50;4.08;;;1.60;;
54143;SDS011;40050;47.324;18.792;2023-06-04T09:32:43;3.08;;;1.60;;
54143;SDS011;40050;47.324;18.792;2023-06-04T09:34:44;3.68;;;1.60;;
54143;SDS011;40050;47.324;18.792;2023-06-04T09:36:45;6.56;;;1.80;;
54143;SDS011;40050;47.324;18.792;2023-06-04T09:38:46;4.47;;;1.40;;
54143;SDS011;40050;47.324;18.792;2023-06-04T09:40:47;4.58;;;1.70;;
54143;SDS011;40050;47.324;18.792;2023-06-04T09:42:49;5.97;;;1.70;;
54143;SDS011;40050;47.324;18.792;2023-06-04T09:44:49;3.88;;;1.70;;
54143;SDS011;40050;47.324;18.792;2023-06-04T09:46:54;2.99;;;1.60;;
54143;SDS011;40050;47.324;18.792;2023-06-04T09:48:58;6.07;;;1.60;;
54143;SDS011;40050;47.324;18.792;2023-06-04T09:51:05;6.47;;;1.70;;
54143;SDS011;40050;47.324;18.792;2023-06-04T09:53:15;5.68;;;1.60;;
54143;SDS011;40050;47.324;18.792;2023-06-04T09:55:16;6.97;;;1.90;;
54143;SDS011;40050;47.324;18.792;2023-06-04T09:57:15;5.78;;;1.90;;
54143;SDS011;40050;47.324;18.792;2023-06-04T09:59:14;5.28;;;1.50;;
54143;SDS011;40050;47.324;18.792;2023-06-04T10:01:16;5.38;;;1.60;;
54143;SDS011;40050;47.324;18.792;2023-06-04T10:03:17;4.38;;;1.50;;
54143;SDS011;40050;47.324;18.792;2023-06-04T10:05:28;3.98;;;1.70;;
54143;SDS011;40050;47.324;18.792;2023-06-04T10:07:28;7.37;;;1.70;;
54143;SDS011;40050;47.324;18.792;2023-06-04T10:09:30;10.45;;;1.90;;
54143;SDS011;40050;47.324;18.792;2023-06-04T10:11:34;7.37;;;2.10;;
54143;SDS011;40050;47.324;18.792;2023-06-04T10:13:53;6.27;;;1.80;;
54143;SDS011;40050;47.324;18.792;2023-06-04T10:15:41;2.69;;;1.40;;
54143;SDS011;40050;47.324;18.792;2023-06-04T10:17:43;4.68;;;1.50;;
54143;SDS011;40050;47.324;18.792;2023-06-04T10:19:48;4.88;;;1.70;;
54143;SDS011;40050;47.324;18.792;2023-06-04T10:21:48;4.48;;;1.60;;
54143;SDS011;40050;47.324;18.792;2023-06-04T10:23:49;4.68;;;1.80;;
54143;SDS011;40050;47.324;18.792;2023-06-04T10:25:51;6.07;;;2.00;;
54143;SDS011;40050;47.324;18.792;2023-06-04T10:27:53;3.68;;;1.70;;
54143;SDS011;40050;47.324;18.792;2023-06-04T10:29:54;4.68;;;1.60;;
54143;SDS011;40050;47.324;18.792;2023-06-04T10:31:55;4.68;;;1.60;;
54143;SDS011;40050;47.324;18.792;2023-06-04T10:33:56;6.37;;;1.50;;
54143;SDS011;40050;47.324;18.792;2023-06-04T10:36:17;5.18;;;1.40;;
54143;SDS011;40050;47.324;18.792;2023-06-04T10:38:08;5.28;;;1.90;;
54143;SDS011;40050;47.324;18.792;2023-06-04T10:40:08;4.68;;;1.40;;
54143;SDS011;40050;47.324;18.792;2023-06-04T10:42:09;4.48;;;1.70;;
54143;SDS011;40050;47.324;18.792;2023-06-04T10:44:11;4.38;;;1.70;;
54143;SDS011;40050;47.324;18.792;2023-06-04T10:46:12;3.68;;;1.50;;
54143;SDS011;40050;47.324;18.792;2023-06-04T10:48:12;3.68;;;1.70;;
54143;SDS011;40050;47.324;18.792;2023-06-04T10:50:13;2.79;;;1.60;;
54143;SDS011;40050;47.324;18.792;2023-06-04T10:52:14;3.58;;;1.60;;
54143;SDS011;40050;47.324;18.792;2023-06-04T10:54:21;3.88;;;2.00;;
54143;SDS011;40050;47.324;18.792;2023-06-04T10:56:30;4.38;;;1.80;;
54143;SDS011;40050;47.324;18.792;2023-06-04T10:58:32;3.98;;;1.60;;
54143;SDS011;40050;47.324;18.792;2023-06-04T11:00:36;5.07;;;1.30;;
54143;SDS011;40050;47.324;18.792;2023-06-04T11:02:42;5.47;;;1.40;;
54143;SDS011;40050;47.324;18.792;2023-06-04T11:07:00;3.09;;;1.50;;
54143;SDS011;40050;47.324;18.792;2023-06-04T11:09:01;5.48;;;1.70;;
54143;SDS011;40050;47.324;18.792;2023-06-04T11:11:10;1.89;;;1.40;;
54143;SDS011;40050;47.324;18.792;2023-06-04T11:13:22;3.28;;;1.50;;
54143;SDS011;40050;47.324;18.792;2023-06-04T11:15:27;2.79;;;1.30;;
54143;SDS011;40050;47.324;18.792;2023-06-04T11:17:28;4.28;;;1.70;;
54143;SDS011;40050;47.324;18.792;2023-06-04T11:19:35;4.47;;;1.50;;
54143;SDS011;40050;47.324;18.792;2023-06-04T11:21:33;3.38;;;1.40;;
54143;SDS011;40050;47.324;18.792;2023-06-04T11:23:33;2.39;;;1.20;;
54143;SDS011;40050;47.324;18.792;2023-06-04T11:25:33;5.37;;;1.50;;
54143;SDS011;40050;47.324;18.792;2023-06-04T11:27:37;6.77;;;1.80;;
54143;SDS011;40050;47.324;18.792;2023-06-04T11:29:39;4.68;;;1.40;;
54143;SDS011;40050;47.324;18.792;2023-06-04T11:31:44;5.27;;;1.50;;
54143;SDS011;40050;47.324;18.792;2023-06-04T11:33:44;5.57;;;1.60;;
54143;SDS011;40050;47.324;18.792;2023-06-04T11:35:42;3.38;;;1.40;;
54143;SDS011;40050;47.324;18.792;2023-06-04T11:37:52;4.09;;;1.50;;
54143;SDS011;40050;47.324;18.792;2023-06-04T11:39:44;4.58;;;1.70;;
54143;SDS011;40050;47.324;18.792;2023-06-04T11:41:45;4.28;;;1.70;;
54143;SDS011;40050;47.324;18.792;2023-06-04T11:43:48;5.18;;;1.70;;
54143;SDS011;40050;47.324;18.792;2023-06-04T11:45:48;3.39;;;1.60;;
54143;SDS011;40050;47.324;18.792;2023-06-04T11:47:51;5.68;;;1.80;;
54143;SDS011;40050;47.324;18.792;2023-06-04T11:49:57;3.09;;;1.50;;
54143;SDS011;40050;47.324;18.792;2023-06-04T11:51:52;3.39;;;1.50;;
54143;SDS011;40050;47.324;18.792;2023-06-04T11:53:53;6.08;;;1.70;;
54143;SDS011;40050;47.324;18.792;2023-06-04T11:56:07;4.39;;;1.80;;
54143;SDS011;40050;47.324;18.792;2023-06-04T11:58:11;4.29;;;1.60;;
54143;SDS011;40050;47.324;18.792;2023-06-04T12:00:13;4.69;;;1.60;;
54143;SDS011;40050;47.324;18.792;2023-06-04T12:02:18;3.39;;;1.30;;
54143;SDS011;40050;47.324;18.792;2023-06-04T12:04:19;3.99;;;1.80;;
54143;SDS011;40050;47.324;18.792;2023-06-04T12:06:20;2.40;;;1.30;;
54143;SDS011;40050;47.324;18.792;2023-06-04T12:08:22;2.50;;;1.50;;